Impacts TAF Board
For situational awareness. Not to be used for flight planning purposes.
IDs:

KGEG - Spokane Intl, WA, US

Issued at 2322 UTC 05 Dec 2019
Updated at 0107 UTC 06 Dec 2019
Potential Impact None Slight Moderate High
Time<<06/14Z 06/15Z 06/16Z 06/17Z 06/18Z 06/19Z 06/20Z 06/21Z 06/22Z 06/23Z 07/00Z 07/01Z 07/02Z>>
Type PRVL PRVL PRVL PRVL PRVL PRVL PRVL PRVL PRVL PRVL
VIS 0.5 0.5 0.5 3 3 3 3 >6 >6 >6
CIG 3 3 3 11 11 11 11 40 40 40
Cover OVC OVC OVC OVC OVC OVC OVC OVC OVC OVC
FltCat LIFR LIFR LIFR MVFR MVFR MVFR MVFR VFR VFR VFR
WX FG FG FG BR BR BR BR -- -- --
WDir 100 100 100 110 110 110 110 110 110 110
WSpd 4 4 4 5 5 5 5 5 5 5
WGst -- -- -- -- -- -- -- -- -- --
Raw TAF
KGEG 052322Z 0600/0624 VRB05KT P6SM VCSH FEW010 BKN020 OVC050
  FM060200 14004KT P6SM VCSH SCT025 OVC040
  FM060500 13004KT 2SM BR OVC040
  FM061200 10004KT 1/2SM FG OVC003
  FM061700 11005KT 3SM BR OVC011
  FM062100 11005KT P6SM SCT015 OVC040


METAR Board
Radar Display
Forecast Discussion
For situational awareness. Not to be used for flight planning purposes.